createdAt,value
2024-04-05T00:00:18.785Z,100311.66
2024-04-05T00:01:21.588Z,100316.86
2024-04-05T00:02:24.138Z,100315.92
2024-04-05T00:03:26.282Z,100314.92
2024-04-05T00:04:28.542Z,100319.27
2024-04-05T00:05:30.888Z,100316.73
2024-04-05T00:06:33.317Z,100312.28
2024-04-05T00:07:35.828Z,100315.86
2024-04-05T00:08:38.037Z,100318.50
2024-04-05T00:09:40.295Z,100318.50
2024-04-05T00:10:42.897Z,100316.73
2024-04-05T00:11:45.106Z,100315.86
2024-04-05T00:12:58.401Z,100322.05
2024-04-05T00:13:52.146Z,100323.77
2024-04-05T00:14:54.405Z,100327.31
2024-04-05T00:15:56.859Z,100330.71
2024-04-05T00:16:59.119Z,100323.67
2024-04-05T00:18:01.461Z,100328.94
2024-04-05T00:19:03.481Z,100329.03
2024-04-05T00:20:06.932Z,100327.25
2024-04-05T00:21:09.503Z,100327.25
2024-04-05T00:22:11.884Z,100328.03
2024-04-05T00:23:14.901Z,100330.71
2024-04-05T00:24:17.231Z,100329.72
2024-04-05T00:25:21.363Z,100324.53
2024-04-05T00:26:23.670Z,100326.31
2024-04-05T00:27:25.897Z,100325.39
2024-04-05T00:28:28.252Z,100329.72
2024-04-05T00:29:30.367Z,100324.53
2024-04-05T00:30:33.014Z,100315.86
2024-04-05T00:31:35.345Z,100326.39
2024-04-05T00:32:37.793Z,100329.94
2024-04-05T00:33:40.094Z,100322.13
2024-04-05T00:34:42.392Z,100319.41
2024-04-05T00:35:53.503Z,100323.67
2024-04-05T00:36:55.834Z,100326.31
2024-04-05T00:37:58.052Z,100321.91
2024-04-05T00:39:00.519Z,100325.45
2024-04-05T00:40:03.049Z,100321.98
2024-04-05T00:41:05.301Z,100322.91
2024-04-05T00:42:07.602Z,100325.67
2024-04-05T00:43:09.818Z,100329.30
2024-04-05T00:44:12.376Z,100325.95
2024-04-05T00:45:14.855Z,100325.95
2024-04-05T00:46:16.995Z,100325.17
2024-04-05T00:47:19.579Z,100327.09
2024-04-05T00:48:22.854Z,100327.17
2024-04-05T00:49:26.156Z,100328.94
2024-04-05T00:50:29.785Z,100323.77
2024-04-05T00:51:32.138Z,100325.53
2024-04-05T00:52:34.971Z,100324.59
2024-04-05T00:53:37.178Z,100321.13
2024-04-05T00:54:39.887Z,100321.95
2024-04-05T00:55:43.374Z,100318.41
2024-04-05T00:56:46.709Z,100325.40
2024-04-05T00:57:49.745Z,100321.91
2024-04-05T00:58:52.523Z,100321.05
2024-04-05T00:59:54.948Z,100322.05
2024-04-05T01:00:57.710Z,100323.81
2024-04-05T01:02:00.130Z,100323.95
2024-04-05T01:03:03.049Z,100321.45
2024-04-05T01:04:05.932Z,100319.69
2024-04-05T01:05:08.346Z,100325.03
2024-04-05T01:06:10.953Z,100322.54
2024-04-05T01:07:13.305Z,100317.19
2024-04-05T01:08:16.178Z,100318.19
2024-04-05T01:09:19.754Z,100318.14
2024-04-05T01:10:22.227Z,100329.57
2024-04-05T01:11:24.604Z,100316.50
2024-04-05T01:12:26.969Z,100327.85
2024-04-05T01:13:29.195Z,100327.08
2024-04-05T01:14:31.479Z,100327.08
2024-04-05T01:15:34.667Z,100320.09
2024-04-05T01:16:37.105Z,100322.67
2024-04-05T01:17:39.599Z,100325.30
2024-04-05T01:18:43.375Z,100327.02
2024-04-05T01:19:46.470Z,100327.02
2024-04-05T01:20:50.808Z,100324.45
2024-04-05T01:21:53.873Z,100337.59
2024-04-05T01:23:01.486Z,100329.79
2024-04-05T01:24:04.213Z,100336.83
2024-04-05T01:25:07.094Z,100333.47
2024-04-05T01:26:09.977Z,100334.33
2024-04-05T01:27:12.370Z,100330.84
2024-04-05T01:28:15.530Z,100332.55
2024-04-05T01:29:17.738Z,100332.61
2024-04-05T01:30:20.246Z,100333.59
2024-04-05T01:31:22.434Z,100330.97
2024-04-05T01:32:24.713Z,100333.73
2024-04-05T01:33:26.909Z,100329.33
2024-04-05T01:34:29.375Z,100335.53
2024-04-05T01:35:31.768Z,100333.87
2024-04-05T01:36:34.259Z,100337.48
2024-04-05T01:37:36.516Z,100339.34
2024-04-05T01:38:38.734Z,100341.33
2024-04-05T01:39:40.903Z,100341.45
2024-04-05T01:40:43.133Z,100338.09
2024-04-05T01:41:45.611Z,100339.09
2024-04-05T01:42:47.852Z,100334.82
2024-04-05T01:43:50.082Z,100339.34
2024-04-05T01:44:52.442Z,100332.53
2024-04-05T01:45:54.711Z,100331.80
2024-04-05T01:46:57.214Z,100334.56
2024-04-05T01:47:59.571Z,100340.02
2024-04-05T01:49:01.896Z,100335.80
2024-04-05T01:50:05.080Z,100347.30
2024-04-05T01:51:07.379Z,100347.51
2024-04-05T01:52:10.358Z,100346.77
2024-04-05T01:53:12.586Z,100346.85
2024-04-05T01:54:14.968Z,100345.26
2024-04-05T01:55:17.599Z,100345.41
2024-04-05T01:56:19.925Z,100341.06
2024-04-05T01:57:22.243Z,100345.58
2024-04-05T01:58:24.445Z,100343.94
2024-04-05T01:59:26.948Z,100349.27
2024-04-05T02:00:29.338Z,100353.79
2024-04-05T02:01:34.431Z,100355.63
2024-04-05T02:02:36.847Z,100356.46
2024-04-05T02:03:39.186Z,100359.09
2024-04-05T02:04:41.801Z,100348.58
2024-04-05T02:05:44.087Z,100353.91
2024-04-05T02:06:46.290Z,100354.03
2024-04-05T02:07:48.805Z,100357.64
2024-04-05T02:08:51.141Z,100354.16
2024-04-05T02:09:53.473Z,100356.86
2024-04-05T02:10:56.004Z,100360.47
2024-04-05T02:11:58.983Z,100362.23
2024-04-05T02:13:01.363Z,100359.65
2024-04-05T02:14:03.860Z,100363.14
2024-04-05T02:15:06.719Z,100362.16
2024-04-05T02:16:09.384Z,100364.73
2024-04-05T02:17:11.865Z,100366.42
2024-04-05T02:18:14.081Z,100360.27
2024-04-05T02:19:16.367Z,100361.12
2024-04-05T02:20:18.621Z,100364.54
2024-04-05T02:21:21.042Z,100368.94
2024-04-05T02:22:23.161Z,100368.03
2024-04-05T02:23:25.620Z,100365.41
2024-04-05T02:24:28.145Z,100358.30
2024-04-05T02:25:32.300Z,100362.77
2024-04-05T02:26:34.708Z,100364.73
2024-04-05T02:27:36.982Z,100359.65
2024-04-05T02:28:39.401Z,100361.57
2024-04-05T02:29:41.832Z,100365.17
2024-04-05T02:30:44.509Z,100361.80
2024-04-05T02:31:46.765Z,100364.62
2024-04-05T02:32:49.195Z,100364.67
2024-04-05T02:33:51.464Z,100360.36
2024-04-05T02:34:53.624Z,100367.53
2024-04-05T02:35:59.756Z,100368.52
2024-04-05T02:37:02.283Z,100367.72
2024-04-05T02:38:04.910Z,100368.78
2024-04-05T02:39:07.046Z,100364.43
2024-04-05T02:40:10.488Z,100364.47
2024-04-05T02:41:12.831Z,100366.38
2024-04-05T02:42:15.135Z,100374.26
2024-04-05T02:43:17.418Z,100369.05
2024-04-05T02:44:19.736Z,100372.61
2024-04-05T02:45:22.031Z,100371.63
2024-04-05T02:46:24.815Z,100372.61
2024-04-05T02:47:27.130Z,100368.19
2024-04-05T02:48:29.591Z,100369.05
2024-04-05T02:49:31.771Z,100372.61
2024-04-05T02:50:34.216Z,100370.03
2024-04-05T02:51:36.749Z,100374.41
2024-04-05T02:52:39.019Z,100374.38
2024-04-05T02:53:41.361Z,100373.44
2024-04-05T02:54:43.762Z,100383.03
2024-04-05T02:55:45.994Z,100379.55
2024-04-05T02:56:48.425Z,100384.80
2024-04-05T02:57:50.822Z,100383.11
2024-04-05T02:58:53.012Z,100388.36
2024-04-05T02:59:55.368Z,100384.80
2024-04-05T03:00:57.622Z,100383.94
2024-04-05T03:01:59.854Z,100381.27
2024-04-05T03:03:02.008Z,100389.94
2024-04-05T03:04:04.512Z,100389.03
2024-04-05T03:05:07.390Z,100396.05
2024-04-05T03:06:09.709Z,100394.20
2024-04-05T03:07:11.944Z,100396.83
2024-04-05T03:08:14.327Z,100388.05
2024-04-05T03:09:16.426Z,100395.07
2024-04-05T03:10:18.786Z,100390.68
2024-04-05T03:11:21.046Z,100393.34
2024-04-05T03:12:23.469Z,100395.07
2024-04-05T03:13:27.069Z,100394.28
2024-04-05T03:14:29.533Z,100402.16
2024-04-05T03:15:31.986Z,100403.13
2024-04-05T03:16:34.194Z,100404.11
2024-04-05T03:17:36.652Z,100398.90
2024-04-05T03:18:39.078Z,100398.97
2024-04-05T03:19:41.403Z,100404.26
2024-04-05T03:20:43.509Z,100408.80
2024-04-05T03:21:45.969Z,100403.59
2024-04-05T03:22:48.162Z,100403.70
2024-04-05T03:23:50.633Z,100401.19
2024-04-05T03:24:52.991Z,100400.28
2024-04-05T03:25:55.186Z,100399.49
2024-04-05T03:26:57.670Z,100398.62
2024-04-05T03:27:59.814Z,100400.47
2024-04-05T03:29:02.184Z,100397.84
2024-04-05T03:30:07.711Z,100404.06
2024-04-05T03:31:09.368Z,100408.45
2024-04-05T03:32:11.625Z,100401.44
2024-04-05T03:33:13.934Z,100399.61
2024-04-05T03:34:16.294Z,100398.70
2024-04-05T03:35:18.657Z,100389.90
2024-04-05T03:36:21.045Z,100388.20
2024-04-05T03:37:23.336Z,100384.65
2024-04-05T03:38:25.433Z,100390.77
2024-04-05T03:39:27.868Z,100383.79
2024-04-05T03:40:30.156Z,100393.45
2024-04-05T03:41:32.379Z,100391.05
2024-04-05T03:42:34.927Z,100381.58
2024-04-05T03:43:38.957Z,100386.89
2024-04-05T03:44:41.451Z,100385.17
2024-04-05T03:45:43.569Z,100384.27
2024-04-05T03:46:46.004Z,100385.13
2024-04-05T03:47:48.125Z,100383.34
2024-04-05T03:48:50.493Z,100384.09
2024-04-05T03:49:52.709Z,100380.56
2024-04-05T03:50:54.971Z,100389.15
2024-04-05T03:51:57.295Z,100389.03
2024-04-05T03:52:59.695Z,100391.66
2024-04-05T03:54:01.957Z,100387.27
2024-04-05T03:55:04.874Z,100396.01
2024-04-05T03:56:08.020Z,100402.00
2024-04-05T03:57:10.271Z,100400.17
2024-04-05T03:58:12.368Z,100400.96
2024-04-05T03:59:15.557Z,100398.34
2024-04-05T04:00:20.019Z,100399.98
2024-04-05T04:01:22.423Z,100398.19
2024-04-05T04:02:24.746Z,100402.38
2024-04-05T04:03:27.043Z,100404.03
2024-04-05T04:04:29.367Z,100401.22
2024-04-05T04:05:31.531Z,100403.80
2024-04-05T04:06:33.920Z,100408.08
2024-04-05T04:07:36.058Z,100408.94
2024-04-05T04:08:38.511Z,100409.80
2024-04-05T04:09:40.708Z,100410.52
2024-04-05T04:10:43.166Z,100410.36
2024-04-05T04:11:45.596Z,100405.83
2024-04-05T04:12:47.625Z,100409.16
2024-04-05T04:13:49.910Z,100411.62
2024-04-05T04:14:52.068Z,100409.94
2024-04-05T04:15:54.432Z,100409.75
2024-04-05T04:16:56.660Z,100413.23
2024-04-05T04:18:01.489Z,100417.51
2024-04-05T04:19:03.918Z,100410.41
2024-04-05T04:20:07.617Z,100415.55
2024-04-05T04:21:10.006Z,100415.43
2024-04-05T04:22:12.341Z,100416.22
2024-04-05T04:23:14.611Z,100414.41
2024-04-05T04:24:17.015Z,100421.23
2024-04-05T04:25:20.977Z,100424.64
2024-04-05T04:26:23.285Z,100421.86
2024-04-05T04:27:25.427Z,100428.64
2024-04-05T04:28:27.700Z,100427.58
2024-04-05T04:29:29.657Z,100430.09
2024-04-05T04:30:32.126Z,100431.69
2024-04-05T04:31:34.620Z,100429.05
2024-04-05T04:32:36.852Z,100430.58
2024-04-05T04:33:39.194Z,100433.13
2024-04-05T04:34:42.149Z,100432.93
2024-04-05T04:35:45.456Z,100434.53
2024-04-05T04:36:47.860Z,100434.41
2024-04-05T04:37:50.092Z,100430.80
2024-04-05T04:38:52.557Z,100438.59
2024-04-05T04:39:54.966Z,100435.80
2024-04-05T04:40:57.369Z,100440.08
2024-04-05T04:41:59.674Z,100434.69
2024-04-05T04:43:01.940Z,100438.02
2024-04-05T04:44:04.769Z,100440.41
2024-04-05T04:45:07.958Z,100439.49
2024-04-05T04:46:11.575Z,100435.92
2024-04-05T04:47:14.060Z,100434.11
2024-04-05T04:48:16.407Z,100433.98
2024-04-05T04:49:19.236Z,100433.81
2024-04-05T04:50:21.664Z,100435.54
2024-04-05T04:51:24.444Z,100431.92
2024-04-05T04:52:26.832Z,100437.96
2024-04-05T04:53:28.993Z,100435.28
2024-04-05T04:54:32.386Z,100441.28
2024-04-05T04:55:37.276Z,100447.23
2024-04-05T04:56:39.773Z,100447.11
2024-04-05T04:57:45.748Z,100456.64
2024-04-05T04:58:48.242Z,100459.09
2024-04-05T04:59:51.813Z,100452.55
2024-04-05T05:00:54.444Z,100454.87
2024-04-05T05:01:56.821Z,100450.25
2024-04-05T05:02:59.422Z,100451.75
2024-04-05T05:04:04.144Z,100455.16
2024-04-05T05:05:06.440Z,100457.58
2024-04-05T05:06:08.943Z,100460.03
2024-04-05T05:07:11.424Z,100453.77
2024-04-05T05:08:13.986Z,100460.59
2024-04-05T05:09:16.886Z,100463.09
2024-04-05T05:10:19.457Z,100468.44
2024-04-05T05:11:24.046Z,100459.59
2024-04-05T05:12:26.598Z,100457.77
2024-04-05T05:13:30.116Z,100461.18
2024-04-05T05:14:32.530Z,100461.05
2024-04-05T05:15:35.266Z,100459.91
2024-04-05T05:16:37.761Z,100460.55
2024-04-05T05:17:40.248Z,100462.95
2024-04-05T05:18:42.740Z,100463.77
2024-04-05T05:19:45.447Z,100455.64
2024-04-05T05:20:48.854Z,100463.41
2024-04-05T05:21:51.112Z,100464.09
2024-04-05T05:22:56.992Z,100463.81
2024-04-05T05:23:59.449Z,100461.03
2024-04-05T05:25:02.200Z,100465.16
2024-04-05T05:26:05.319Z,100463.05
2024-04-05T05:27:07.872Z,100470.81
2024-04-05T05:28:12.495Z,100471.59
2024-04-05T05:29:14.805Z,100470.59
2024-04-05T05:30:17.393Z,100467.80
2024-04-05T05:31:19.930Z,100462.24
2024-04-05T05:32:22.254Z,100466.45
2024-04-05T05:33:24.512Z,100460.95
2024-04-05T05:34:26.958Z,100465.07
2024-04-05T05:35:29.349Z,100458.88
2024-04-05T05:36:31.850Z,100465.64
2024-04-05T05:37:34.525Z,100463.77
2024-04-05T05:38:36.711Z,100467.09
2024-04-05T05:39:39.316Z,100466.02
2024-04-05T05:40:41.670Z,100464.24
2024-04-05T05:41:44.093Z,100463.39
2024-04-05T05:42:46.323Z,100465.02
2024-04-05T05:43:49.953Z,100461.45
2024-04-05T05:44:52.400Z,100467.59
2024-04-05T05:45:54.603Z,100464.00
2024-04-05T05:46:57.055Z,100463.70
2024-04-05T05:47:59.323Z,100461.06
2024-04-05T05:49:01.560Z,100467.73
2024-04-05T05:50:04.572Z,100463.02
2024-04-05T05:51:07.034Z,100458.34
2024-04-05T05:52:09.412Z,100465.05
2024-04-05T05:53:11.509Z,100458.66
2024-04-05T05:54:13.911Z,100452.46
2024-04-05T05:55:16.569Z,100465.31
2024-04-05T05:56:18.836Z,100466.02
2024-04-05T05:57:21.412Z,100456.16
2024-04-05T05:58:23.874Z,100460.34
2024-04-05T05:59:26.336Z,100462.82
2024-04-05T06:00:29.156Z,100459.16
2024-04-05T06:01:31.984Z,100461.65
2024-04-05T06:02:38.598Z,100460.63
2024-04-05T06:03:41.525Z,100458.79
2024-04-05T06:04:43.845Z,100462.09
2024-04-05T06:05:52.427Z,100458.38
2024-04-05T06:06:55.793Z,100459.30
2024-04-05T06:07:58.126Z,100460.06
2024-04-05T06:09:00.601Z,100457.27
2024-04-05T06:10:03.567Z,100463.09
2024-04-05T06:11:06.372Z,100466.43
2024-04-05T06:12:10.769Z,100466.27
2024-04-05T06:13:13.222Z,100461.66
2024-04-05T06:14:16.214Z,100455.34
2024-04-05T06:15:18.651Z,100452.64
2024-04-05T06:16:21.098Z,100462.25
2024-04-05T06:17:24.155Z,100460.47
2024-04-05T06:18:28.308Z,100463.81
2024-04-05T06:19:44.324Z,100464.34
2024-04-05T06:20:55.438Z,100458.03
2024-04-05T06:21:57.814Z,100459.39
2024-04-05T06:23:00.246Z,100455.66
2024-04-05T06:24:02.945Z,100451.99
2024-04-05T06:25:18.463Z,100459.92
2024-04-05T06:26:20.899Z,100459.76
2024-04-05T06:27:23.763Z,100456.91
2024-04-05T06:28:26.854Z,100449.67
2024-04-05T06:29:29.510Z,100455.49
2024-04-05T06:30:31.729Z,100453.50
2024-04-05T06:31:35.468Z,100455.81
2024-04-05T06:32:37.843Z,100453.76
2024-04-05T06:33:40.095Z,100450.02
2024-04-05T06:34:42.971Z,100453.94
2024-04-05T06:35:45.868Z,100455.45
2024-04-05T06:36:48.259Z,100457.00
2024-04-05T06:37:50.695Z,100457.69
2024-04-05T06:38:53.124Z,100458.38
2024-04-05T06:39:55.676Z,100458.38
2024-04-05T06:41:01.024Z,100455.04
2024-04-05T06:42:03.810Z,100453.18
2024-04-05T06:43:08.409Z,100454.08
2024-04-05T06:44:11.094Z,100448.64
2024-04-05T06:45:13.497Z,100453.18
2024-04-05T06:46:15.805Z,100453.18
2024-04-05T06:47:18.271Z,100455.97
2024-04-05T06:48:20.492Z,100454.35
2024-04-05T06:49:22.843Z,100453.59
2024-04-05T06:50:25.219Z,100458.20
2024-04-05T06:51:27.386Z,100451.19
2024-04-05T06:52:29.779Z,100447.89
2024-04-05T06:53:32.012Z,100458.64
2024-04-05T06:54:44.129Z,100455.14
2024-04-05T06:55:49.791Z,100457.78
2024-04-05T06:56:52.387Z,100463.94
2024-04-05T06:57:54.588Z,100456.82
2024-04-05T06:58:57.070Z,100456.48
2024-04-05T06:59:59.296Z,100456.14
2024-04-05T07:01:02.155Z,100458.38
2024-04-05T07:02:17.616Z,100456.23
2024-04-05T07:03:20.130Z,100450.59
2024-04-05T07:04:22.364Z,100446.98
2024-04-05T07:05:24.705Z,100446.23
2024-04-05T07:06:26.958Z,100446.23
2024-04-05T07:07:29.373Z,100450.77
2024-04-05T07:08:31.758Z,100448.98
2024-04-05T07:09:34.096Z,100447.84
2024-04-05T07:10:48.146Z,100444.09
2024-04-05T07:11:41.483Z,100442.09
2024-04-05T07:12:43.948Z,100448.18
2024-04-05T07:13:46.462Z,100447.97
2024-04-05T07:14:48.984Z,100447.90
2024-04-05T07:15:51.559Z,100445.14
2024-04-05T07:16:53.796Z,100452.91
2024-04-05T07:17:56.335Z,100451.05
2024-04-05T07:18:58.728Z,100449.34
2024-04-05T07:20:01.199Z,100455.66
2024-04-05T07:21:04.272Z,100465.30
2024-04-05T07:22:06.642Z,100459.64
2024-04-05T07:23:09.036Z,100455.89
2024-04-05T07:24:11.220Z,100457.32
2024-04-05T07:25:14.037Z,100468.48
2024-04-05T07:26:16.311Z,100467.17
2024-04-05T07:27:18.760Z,100471.35
2024-04-05T07:28:21.187Z,100468.42
2024-04-05T07:29:23.591Z,100464.47
2024-04-05T07:30:26.186Z,100456.05
2024-04-05T07:31:29.402Z,100467.11
2024-04-05T07:32:32.155Z,100467.49
2024-04-05T07:33:34.469Z,100454.63
2024-04-05T07:34:36.781Z,100458.62
2024-04-05T07:35:39.301Z,100466.09
2024-04-05T07:36:41.762Z,100460.41
2024-04-05T07:37:50.503Z,100460.03
2024-04-05T07:38:53.036Z,100456.22
2024-04-05T07:39:55.914Z,100456.03
2024-04-05T07:41:06.426Z,100461.81
2024-04-05T07:42:08.783Z,100461.52
2024-04-05T07:43:11.030Z,100456.31
2024-04-05T07:44:14.285Z,100453.25
2024-04-05T07:45:16.894Z,100446.62
2024-04-05T07:46:19.302Z,100450.76
2024-04-05T07:47:21.543Z,100453.34
2024-04-05T07:48:24.095Z,100447.05
2024-04-05T07:49:26.274Z,100451.42
2024-04-05T07:50:28.626Z,100453.69
2024-04-05T07:51:31.617Z,100441.91
2024-04-05T07:52:34.060Z,100449.51
2024-04-05T07:53:36.215Z,100442.75
2024-04-05T07:54:42.193Z,100440.45
2024-04-05T07:55:44.581Z,100440.98
2024-04-05T07:56:48.215Z,100438.67
2024-04-05T07:57:51.696Z,100443.38
2024-04-05T07:58:54.112Z,100445.52
2024-04-05T07:59:56.560Z,100446.91
2024-04-05T08:00:59.133Z,100444.79
2024-04-05T08:02:01.599Z,100445.44
2024-04-05T08:03:04.395Z,100440.45
2024-04-05T08:04:06.683Z,100439.39
2024-04-05T08:05:09.101Z,100443.97
2024-04-05T08:06:11.577Z,100443.11
2024-04-05T08:07:14.058Z,100449.49
2024-04-05T08:08:16.582Z,100437.68
2024-04-05T08:09:18.965Z,100446.09
2024-04-05T08:10:21.278Z,100437.59
2024-04-05T08:11:23.578Z,100443.14
2024-04-05T08:12:26.059Z,100445.38
2024-04-05T08:13:28.646Z,100444.20
2024-04-05T08:14:30.936Z,100442.06
2024-04-05T08:15:33.653Z,100436.23
2024-04-05T08:16:39.085Z,100443.33
2024-04-05T08:17:41.522Z,100444.70
2024-04-05T08:18:44.039Z,100437.25
2024-04-05T08:19:46.572Z,100444.92
2024-04-05T08:20:48.838Z,100435.88
2024-04-05T08:21:51.145Z,100439.05
2024-04-05T08:22:53.487Z,100436.81
2024-04-05T08:23:56.011Z,100441.48
2024-04-05T08:24:58.788Z,100433.06
2024-04-05T08:26:01.496Z,100436.02
2024-04-05T08:27:04.497Z,100436.17
2024-04-05T08:28:06.809Z,100433.64
2024-04-05T08:29:09.080Z,100430.13
2024-04-05T08:30:12.108Z,100435.35
2024-04-05T08:31:14.371Z,100426.16
2024-04-05T08:32:16.725Z,100425.81
2024-04-05T08:33:19.637Z,100431.99
2024-04-05T08:34:22.516Z,100433.92
2024-04-05T08:35:24.936Z,100438.91
2024-04-05T08:36:27.535Z,100439.66
2024-04-05T08:37:29.995Z,100426.22
2024-04-05T08:38:32.274Z,100428.03
2024-04-05T08:39:34.960Z,100425.36
2024-04-05T08:40:39.903Z,100413.63
2024-04-05T08:41:44.634Z,100417.16
2024-04-05T08:42:48.842Z,100418.64
2024-04-05T08:43:52.958Z,100420.82
2024-04-05T08:44:55.954Z,100419.29
2024-04-05T08:45:58.486Z,100419.78
2024-04-05T08:47:02.215Z,100413.41
2024-04-05T08:48:05.585Z,100420.19
2024-04-05T08:49:08.698Z,100420.91
2024-04-05T08:50:13.077Z,100421.55
2024-04-05T08:51:16.147Z,100425.56
2024-04-05T08:52:18.852Z,100429.94
2024-04-05T08:53:21.395Z,100423.84
2024-04-05T08:54:23.995Z,100426.52
2024-04-05T08:55:28.332Z,100424.60
2024-04-05T08:56:31.393Z,100430.89
2024-04-05T08:57:38.742Z,100429.44
2024-04-05T08:58:42.651Z,100428.13
2024-04-05T08:59:49.774Z,100423.02
2024-04-05T09:00:51.833Z,100427.17
2024-04-05T09:02:07.233Z,100420.66
2024-04-05T09:03:09.546Z,100418.71
2024-04-05T09:04:13.444Z,100419.30
2024-04-05T09:05:17.926Z,100422.36
2024-04-05T09:06:20.578Z,100416.80
2024-04-05T09:07:23.128Z,100421.99
2024-04-05T09:08:25.594Z,100419.72
2024-04-05T09:09:29.207Z,100418.56
2024-04-05T09:10:33.407Z,100416.37
2024-04-05T09:11:35.914Z,100406.30
2024-04-05T09:12:49.600Z,100413.95
2024-04-05T09:13:57.341Z,100412.73
2024-04-05T09:14:59.930Z,100405.58
2024-04-05T09:16:02.327Z,100405.58
2024-04-05T09:17:15.818Z,100397.48
2024-04-05T09:18:26.542Z,100406.78
2024-04-05T09:19:28.880Z,100401.83
2024-04-05T09:20:31.577Z,100398.54
2024-04-05T09:21:34.621Z,100394.53
2024-04-05T09:22:36.831Z,100400.72
2024-04-05T09:23:48.443Z,100398.30
2024-04-05T09:25:02.745Z,100402.30
2024-04-05T09:26:05.318Z,100402.78
2024-04-05T09:27:07.744Z,100399.16
2024-04-05T09:28:12.571Z,100398.78
2024-04-05T09:29:15.779Z,100400.25
2024-04-05T09:30:18.425Z,100398.54
2024-04-05T09:31:21.382Z,100398.67
2024-04-05T09:32:23.608Z,100395.16
2024-04-05T09:33:26.115Z,100388.72
2024-04-05T09:34:30.156Z,100394.30
2024-04-05T09:35:37.843Z,100392.85
2024-04-05T09:36:40.517Z,100391.76
2024-04-05T09:37:43.147Z,100390.42
2024-04-05T09:38:46.118Z,100396.95
2024-04-05T09:39:50.100Z,100394.64
2024-04-05T09:40:52.951Z,100397.41
2024-04-05T09:41:55.169Z,100394.95
2024-04-05T09:42:58.887Z,100386.34
2024-04-05T09:44:10.255Z,100388.38
2024-04-05T09:45:08.823Z,100391.12
2024-04-05T09:46:13.009Z,100393.04
2024-04-05T09:47:18.006Z,100388.16
2024-04-05T09:48:22.021Z,100393.03
2024-04-05T09:49:25.615Z,100393.34
2024-04-05T09:50:30.568Z,100390.30
2024-04-05T09:51:42.723Z,100389.59
2024-04-05T09:52:45.331Z,100390.42
2024-04-05T09:53:50.855Z,100388.20
2024-04-05T09:54:56.261Z,100393.44
2024-04-05T09:56:00.659Z,100383.09
2024-04-05T09:57:03.901Z,100382.80
2024-04-05T09:58:06.726Z,100380.32
2024-04-05T09:59:15.555Z,100382.37
2024-04-05T10:00:21.750Z,100374.16
2024-04-05T10:01:24.252Z,100377.59
2024-04-05T10:02:29.190Z,100377.14
2024-04-05T10:03:31.844Z,100373.36
2024-04-05T10:04:37.301Z,100375.78
2024-04-05T10:05:39.441Z,100374.41
2024-04-05T10:06:42.534Z,100370.03
2024-04-05T10:07:44.835Z,100372.70
2024-04-05T10:08:47.354Z,100361.75
2024-04-05T10:09:49.699Z,100361.61
2024-04-05T10:10:54.156Z,100359.41
2024-04-05T10:11:56.571Z,100363.91
2024-04-05T10:13:11.227Z,100363.50
2024-04-05T10:14:27.796Z,100359.45
2024-04-05T10:15:30.831Z,100360.05
2024-04-05T10:16:34.825Z,100359.64
2024-04-05T10:17:38.043Z,100362.76
2024-04-05T10:18:41.316Z,100354.91
2024-04-05T10:19:44.811Z,100358.88
2024-04-05T10:20:52.165Z,100361.45
2024-04-05T10:22:04.872Z,100357.91
2024-04-05T10:23:11.370Z,100362.30
2024-04-05T10:24:14.630Z,100354.38
2024-04-05T10:25:17.966Z,100357.77
2024-04-05T10:26:21.314Z,100357.50
2024-04-05T10:27:27.004Z,100360.33
2024-04-05T10:28:30.180Z,100357.06
2024-04-05T10:29:32.620Z,100362.56
2024-04-05T10:30:35.620Z,100357.33
2024-04-05T10:31:41.486Z,100360.00
2024-04-05T10:32:48.711Z,100361.83
2024-04-05T10:33:51.299Z,100364.80
2024-04-05T10:34:57.321Z,100365.77
2024-04-05T10:36:00.909Z,100365.87
2024-04-05T10:37:06.833Z,100365.87
2024-04-05T10:38:19.292Z,100368.29
2024-04-05T10:39:14.373Z,100357.73
2024-04-05T10:40:17.628Z,100361.45
2024-04-05T10:41:20.114Z,100362.59
2024-04-05T10:42:26.475Z,100355.73
2024-04-05T10:43:31.202Z,100363.50
2024-04-05T10:44:33.733Z,100361.27
2024-04-05T10:45:36.895Z,100372.79
2024-04-05T10:46:40.053Z,100362.37
2024-04-05T10:47:53.198Z,100359.97
2024-04-05T10:48:59.172Z,100361.11
2024-04-05T10:50:04.178Z,100352.66
2024-04-05T10:51:06.366Z,100354.84
2024-04-05T10:52:09.032Z,100362.48
2024-04-05T10:53:14.993Z,100356.70
2024-04-05T10:54:17.308Z,100356.17
2024-04-05T10:55:22.268Z,100349.95
2024-04-05T10:56:24.839Z,100362.23
2024-04-05T10:57:30.476Z,100352.80
2024-04-05T10:58:35.531Z,100350.42
2024-04-05T10:59:37.988Z,100345.34
2024-04-05T11:00:41.397Z,100352.13
2024-04-05T11:01:44.084Z,100353.25
2024-04-05T11:02:46.551Z,100356.66
2024-04-05T11:03:48.824Z,100351.57
2024-04-05T11:04:51.111Z,100352.42
2024-04-05T11:05:57.153Z,100346.78
2024-04-05T11:07:00.365Z,100352.44
2024-04-05T11:08:06.071Z,100351.16
2024-04-05T11:09:09.529Z,100353.97
2024-04-05T11:10:27.200Z,100357.80
2024-04-05T11:11:24.133Z,100348.87
2024-04-05T11:12:26.458Z,100350.33
2024-04-05T11:13:28.725Z,100347.21
2024-04-05T11:14:31.606Z,100345.66
2024-04-05T11:15:34.092Z,100344.66
2024-04-05T11:16:37.670Z,100344.66
2024-04-05T11:17:40.306Z,100338.31
2024-04-05T11:18:42.714Z,100339.86
2024-04-05T11:19:45.278Z,100336.61
2024-04-05T11:20:50.642Z,100339.29
2024-04-05T11:22:04.549Z,100330.55
2024-04-05T11:23:17.189Z,100332.54
2024-04-05T11:24:21.551Z,100325.03
2024-04-05T11:25:30.313Z,100332.66
2024-04-05T11:26:37.251Z,100325.30
2024-04-05T11:27:40.462Z,100327.70
2024-04-05T11:28:45.199Z,100322.34
2024-04-05T11:29:51.202Z,100322.91
2024-04-05T11:30:55.027Z,100324.58
2024-04-05T11:31:59.620Z,100325.98
2024-04-05T11:33:03.541Z,100325.14
2024-04-05T11:34:06.460Z,100322.45
2024-04-05T11:35:10.341Z,100331.07
2024-04-05T11:36:12.980Z,100324.27
2024-04-05T11:37:15.403Z,100318.62
2024-04-05T11:38:17.880Z,100327.09
2024-04-05T11:39:20.221Z,100328.92
2024-04-05T11:40:32.932Z,100317.89
2024-04-05T11:41:27.621Z,100313.94
2024-04-05T11:42:30.202Z,100316.47
2024-04-05T11:43:33.594Z,100319.76
2024-04-05T11:44:36.022Z,100316.52
2024-04-05T11:45:38.387Z,100312.81
2024-04-05T11:46:40.721Z,100307.45
2024-04-05T11:47:44.453Z,100317.36
2024-04-05T11:48:47.016Z,100316.35
2024-04-05T11:49:52.234Z,100311.70
2024-04-05T11:50:54.642Z,100315.08
2024-04-05T11:51:57.036Z,100310.86
2024-04-05T11:52:59.587Z,100313.38
2024-04-05T11:54:02.112Z,100311.55
2024-04-05T11:55:05.150Z,100309.72
2024-04-05T11:56:08.003Z,100305.20
2024-04-05T11:57:12.681Z,100303.50
2024-04-05T11:58:14.990Z,100303.34
2024-04-05T11:59:18.477Z,100300.07
2024-04-05T12:00:20.989Z,100302.33
2024-04-05T12:01:23.414Z,100299.33